Labrador — 5BXP2 — position and weather

sailwx.info

Track history (hours):
 
Tides and Currents Weather Stations Pressure Air Temp Water Temp Dewpoint Dewpoint Depression Visibility Wind Speed Wind Dir Waves Ship Positions

Labrador

Last reported at 2018-Aug-08 04:18 UTC. Time now 2018-Aug-14 15:18 UTC.
Position N 46°50' W 071°10'.

Length 186 m; draft 9.1 m.

Type: Cargo ship. MMSI: 209008000.

Date/timePositionNaut miles runAvg speedWind from/ knotsBaromVisibWave heightAir tempDewpointWater temp
2018-Aug-08 04:18N 46°50' W 071°10'9012.5
2018-Aug-07 21:06N 46°04' W 073°02'113.4
2018-Aug-07 20:59N 46°04' W 073°04'611.8
2018-Aug-07 20:30N 46°00' W 073°11'713.3
2018-Aug-07 20:00N 45°54' W 073°14'713.3
2018-Aug-07 19:30N 45°49' W 073°19'20 0.7
2018-Aug-06 14:34N 45°30' W 073°31'0 0.4
2018-Aug-06 13:52N 45°30' W 073°31'1 2.5
2018-Aug-06 13:30N 45°29' W 073°31'3 6.2
2018-Aug-06 13:00N 45°26' W 073°30'3 3.1
2018-Aug-06 12:02N 45°24' W 073°34'0 0.9
2018-Aug-06 11:59N 45°24' W 073°34'3 4.8
2018-Aug-06 11:27N 45°24' W 073°38'3 6.1
2018-Aug-06 11:00N 45°25' W 073°41'5 9.7
2018-Aug-06 10:30N 45°23' W 073°48'612.1
2018-Aug-06 10:00N 45°20' W 073°55'2 1.3
2018-Aug-06 08:37N 45°18' W 073°56'  
Track history (hours):
 
Tides and Currents Weather Stations Pressure Air Temp Water Temp Dewpoint Dewpoint Depression Visibility Wind Speed Wind Dir Waves Ship Positions

Labrador

Last reported at 2018-Aug-08 04:18 UTC. Time now 2018-Aug-14 15:18 UTC.
Position N 46°50' W 071°10'.

Length 186 m; draft 9.1 m.

Type: Cargo ship. MMSI: 209008000.

Date/timePositionNaut miles runAvg speedWind from/ knotsBaromVisibWave heightAir tempDewpointWater temp
2018-Aug-08 04:18N 46°50' W 071°10'9012.5
2018-Aug-07 21:06N 46°04' W 073°02'113.4
2018-Aug-07 20:59N 46°04' W 073°04'611.8
2018-Aug-07 20:30N 46°00' W 073°11'713.3
2018-Aug-07 20:00N 45°54' W 073°14'713.3
2018-Aug-07 19:30N 45°49' W 073°19'20 0.7
2018-Aug-06 14:34N 45°30' W 073°31'0 0.4
2018-Aug-06 13:52N 45°30' W 073°31'1 2.5
2018-Aug-06 13:30N 45°29' W 073°31'3 6.2
2018-Aug-06 13:00N 45°26' W 073°30'3 3.1
2018-Aug-06 12:02N 45°24' W 073°34'0 0.9
2018-Aug-06 11:59N 45°24' W 073°34'3 4.8
2018-Aug-06 11:27N 45°24' W 073°38'3 6.1
2018-Aug-06 11:00N 45°25' W 073°41'5 9.7
2018-Aug-06 10:30N 45°23' W 073°48'612.1
2018-Aug-06 10:00N 45°20' W 073°55'2 1.3
2018-Aug-06 08:37N 45°18' W 073°56'  

Dump ship's entire track history